createdAt,value
2022-12-03T00:00:41.105Z,102295.59
2022-12-03T00:03:07.924Z,102293.44
2022-12-03T00:05:34.679Z,102291.41
2022-12-03T00:08:02.950Z,102285.34
2022-12-03T00:10:29.713Z,102278.06
2022-12-03T00:12:56.369Z,102295.53
2022-12-03T00:15:23.064Z,102281.44
2022-12-03T00:17:49.667Z,102285.09
2022-12-03T00:20:21.894Z,102289.47
2022-12-03T00:22:48.716Z,102290.19
2022-12-03T00:25:15.429Z,102285.16
2022-12-03T00:27:42.179Z,102285.22
2022-12-03T00:30:09.926Z,102292.28
2022-12-03T00:32:36.925Z,102284.69
2022-12-03T00:35:03.643Z,102280.78
2022-12-03T00:37:30.290Z,102292.81
2022-12-03T00:39:57.108Z,102292.38
2022-12-03T00:42:23.746Z,102292.16
2022-12-03T00:44:50.422Z,102283.75
2022-12-03T00:47:17.220Z,102276.88
2022-12-03T00:49:43.868Z,102281.97
2022-12-03T00:52:10.465Z,102276.53
2022-12-03T00:54:37.137Z,102275.84
2022-12-03T00:57:03.839Z,102273.19
2022-12-03T00:59:30.587Z,102277.41
2022-12-03T01:01:57.286Z,102284.03
2022-12-03T01:04:24.078Z,102283.88
2022-12-03T01:06:50.775Z,102288.00
2022-12-03T01:09:17.412Z,102294.03
2022-12-03T01:11:44.106Z,102279.50
2022-12-03T01:14:13.458Z,102286.44
2022-12-03T01:16:40.223Z,102289.09
2022-12-03T01:19:07.835Z,102283.00
2022-12-03T01:21:35.199Z,102292.88
2022-12-03T01:24:01.972Z,102286.97
2022-12-03T01:26:31.701Z,102286.97
2022-12-03T01:28:58.427Z,102280.97
2022-12-03T01:31:46.906Z,102287.22
2022-12-03T01:34:13.608Z,102290.25
2022-12-03T01:36:41.227Z,102283.31
2022-12-03T01:39:07.873Z,102282.66
2022-12-03T01:41:35.771Z,102287.97
2022-12-03T01:44:02.869Z,102290.59
2022-12-03T01:46:38.809Z,102288.31
2022-12-03T01:49:05.887Z,102285.06
2022-12-03T01:51:32.667Z,102283.53
2022-12-03T01:54:00.926Z,102274.78
2022-12-03T01:56:27.615Z,102281.13
2022-12-03T01:58:54.528Z,102280.44
2022-12-03T02:01:21.230Z,102283.19
2022-12-03T02:03:48.007Z,102283.94
2022-12-03T02:06:21.821Z,102281.50
2022-12-03T02:08:49.329Z,102276.94
2022-12-03T02:11:36.469Z,102273.88
2022-12-03T02:14:06.784Z,102270.19
2022-12-03T02:16:36.596Z,102277.81
2022-12-03T02:19:04.877Z,102276.72
2022-12-03T02:21:39.070Z,102286.78
2022-12-03T02:24:14.641Z,102278.31
2022-12-03T02:26:41.334Z,102277.47
2022-12-03T02:29:07.954Z,102277.56
2022-12-03T02:31:34.946Z,102283.91
2022-12-03T02:34:06.495Z,102275.81
2022-12-03T02:36:33.904Z,102272.38
2022-12-03T02:39:00.889Z,102275.88
2022-12-03T02:41:46.055Z,102276.88
2022-12-03T02:44:12.797Z,102274.25
2022-12-03T02:46:39.574Z,102271.56
2022-12-03T02:49:06.335Z,102268.78
2022-12-03T02:51:35.075Z,102271.63
2022-12-03T02:54:02.192Z,102277.47
2022-12-03T02:56:30.804Z,102272.09
2022-12-03T02:59:00.369Z,102275.88
2022-12-03T03:01:27.173Z,102281.69
2022-12-03T03:03:54.282Z,102272.13
2022-12-03T03:06:22.602Z,102276.06
2022-12-03T03:08:49.431Z,102272.91
2022-12-03T03:11:16.058Z,102279.81
2022-12-03T03:13:46.082Z,102278.53
2022-12-03T03:16:15.916Z,102276.66
2022-12-03T03:18:42.811Z,102270.94
2022-12-03T03:21:09.741Z,102277.53
2022-12-03T03:23:36.559Z,102278.66
2022-12-03T03:26:06.667Z,102262.03
2022-12-03T03:28:36.597Z,102265.28
2022-12-03T03:31:05.745Z,102266.09
2022-12-03T03:33:32.849Z,102259.88
2022-12-03T03:36:00.579Z,102267.28
2022-12-03T03:38:27.612Z,102254.50
2022-12-03T03:40:54.382Z,102260.28
2022-12-03T03:43:22.004Z,102250.44
2022-12-03T03:45:49.164Z,102250.69
2022-12-03T03:48:15.959Z,102249.09
2022-12-03T03:50:43.077Z,102244.06
2022-12-03T03:53:10.007Z,102247.56
2022-12-03T03:55:36.664Z,102237.25
2022-12-03T03:58:03.422Z,102239.47
2022-12-03T04:00:30.551Z,102236.72
2022-12-03T04:02:57.415Z,102240.34
2022-12-03T04:05:24.583Z,102233.88
2022-12-03T04:07:54.277Z,102231.50
2022-12-03T04:10:39.585Z,102238.19
2022-12-03T04:13:09.300Z,102232.34
2022-12-03T04:15:35.946Z,102230.16
2022-12-03T04:18:24.457Z,102226.56
2022-12-03T04:20:51.306Z,102233.50
2022-12-03T04:23:17.944Z,102225.47
2022-12-03T04:26:03.286Z,102224.03
2022-12-03T04:28:48.669Z,102221.41
2022-12-03T04:31:34.116Z,102223.78
2022-12-03T04:34:22.641Z,102224.13
2022-12-03T04:36:49.491Z,102219.75
2022-12-03T04:39:16.190Z,102222.44
2022-12-03T04:41:42.903Z,102224.13
2022-12-03T04:44:28.219Z,102221.31
2022-12-03T04:46:54.861Z,102219.47
2022-12-03T04:49:21.798Z,102220.50
2022-12-03T04:51:48.466Z,102218.25
2022-12-03T04:54:15.259Z,102217.75
2022-12-03T04:56:41.952Z,102212.06
2022-12-03T04:59:15.746Z,102212.81
2022-12-03T05:01:43.126Z,102209.34
2022-12-03T05:04:09.794Z,102216.31
2022-12-03T05:06:36.492Z,102205.56
2022-12-03T05:09:03.629Z,102207.69
2022-12-03T05:11:30.463Z,102206.94
2022-12-03T05:14:00.147Z,102205.03
2022-12-03T05:16:28.773Z,102192.78
2022-12-03T05:18:55.481Z,102204.59
2022-12-03T05:21:22.150Z,102205.47
2022-12-03T05:23:49.081Z,102195.25
2022-12-03T05:26:15.707Z,102199.16
2022-12-03T05:28:42.337Z,102198.09
2022-12-03T05:31:09.118Z,102202.00
2022-12-03T05:33:40.880Z,102200.25
2022-12-03T05:36:10.546Z,102197.50
2022-12-03T05:38:37.262Z,102205.75
2022-12-03T05:41:24.078Z,102207.69
2022-12-03T05:43:51.002Z,102194.31
2022-12-03T05:46:17.710Z,102196.28
2022-12-03T05:48:44.512Z,102198.88
2022-12-03T05:51:11.220Z,102200.44
2022-12-03T05:53:37.868Z,102195.38
2022-12-03T05:56:04.753Z,102191.09
2022-12-03T05:58:31.441Z,102191.97
2022-12-03T06:00:58.138Z,102199.03
2022-12-03T06:03:25.024Z,102196.75
2022-12-03T06:05:51.932Z,102183.81
2022-12-03T06:08:18.637Z,102193.31
2022-12-03T06:10:45.319Z,102192.63
2022-12-03T06:13:11.938Z,102193.56
2022-12-03T06:15:43.438Z,102198.56
2022-12-03T06:18:10.827Z,102196.88
2022-12-03T06:20:37.461Z,102195.06
2022-12-03T06:23:04.128Z,102199.97
2022-12-03T06:25:30.943Z,102191.59
2022-12-03T06:27:57.601Z,102192.84
2022-12-03T06:30:24.235Z,102194.38
2022-12-03T06:32:50.877Z,102193.16
2022-12-03T06:35:18.930Z,102197.13
2022-12-03T06:37:45.570Z,102195.41
2022-12-03T06:40:13.466Z,102201.59
2022-12-03T06:42:40.116Z,102197.50
2022-12-03T06:45:06.940Z,102199.19
2022-12-03T06:47:33.783Z,102195.19
2022-12-03T06:50:00.663Z,102194.97
2022-12-03T06:52:27.403Z,102190.00
2022-12-03T06:54:54.349Z,102190.50
2022-12-03T06:57:21.199Z,102194.94
2022-12-03T06:59:47.793Z,102197.50
2022-12-03T07:02:14.440Z,102193.63
2022-12-03T07:04:46.049Z,102186.25
2022-12-03T07:07:13.412Z,102191.28
2022-12-03T07:09:40.116Z,102192.38
2022-12-03T07:12:06.848Z,102188.47
2022-12-03T07:14:33.487Z,102192.91
2022-12-03T07:17:03.238Z,102199.03
2022-12-03T07:19:32.766Z,102196.53
2022-12-03T07:22:00.386Z,102195.41
2022-12-03T07:24:27.523Z,102199.56
2022-12-03T07:26:54.334Z,102197.19
2022-12-03T07:29:21.235Z,102193.72
2022-12-03T07:31:48.023Z,102200.78
2022-12-03T07:34:14.845Z,102195.66
2022-12-03T07:36:41.768Z,102191.91
2022-12-03T07:39:08.375Z,102189.94
2022-12-03T07:41:35.163Z,102193.72
2022-12-03T07:44:03.019Z,102189.94
2022-12-03T07:46:29.890Z,102189.72
2022-12-03T07:48:56.700Z,102187.31
2022-12-03T07:51:26.184Z,102188.34
2022-12-03T07:53:57.398Z,102195.31
2022-12-03T07:56:24.178Z,102193.31
2022-12-03T07:58:50.800Z,102187.78
2022-12-03T08:01:17.776Z,102191.72
2022-12-03T08:03:44.645Z,102187.38
2022-12-03T08:06:11.316Z,102184.97
2022-12-03T08:08:38.225Z,102181.06
2022-12-03T08:11:06.492Z,102173.91
2022-12-03T08:13:35.139Z,102179.91
2022-12-03T08:16:06.766Z,102174.38
2022-12-03T08:18:49.889Z,102169.66
2022-12-03T08:21:21.827Z,102178.22
2022-12-03T08:23:49.133Z,102176.72
2022-12-03T08:26:25.133Z,102173.31
2022-12-03T08:28:53.096Z,102172.66
2022-12-03T08:31:33.215Z,102175.22
2022-12-03T08:34:17.801Z,102162.13
2022-12-03T08:36:45.253Z,102169.81
2022-12-03T08:39:25.509Z,102163.69
2022-12-03T08:42:27.874Z,102175.34
2022-12-03T08:44:55.928Z,102165.94
2022-12-03T08:47:24.130Z,102172.66
2022-12-03T08:50:16.954Z,102171.91
2022-12-03T08:52:43.736Z,102169.69
2022-12-03T08:55:33.533Z,102168.94
2022-12-03T08:58:00.477Z,102170.69
2022-12-03T09:00:27.122Z,102165.75
2022-12-03T09:02:55.493Z,102172.22
2022-12-03T09:05:30.731Z,102167.25
2022-12-03T09:07:59.468Z,102174.31
2022-12-03T09:10:26.166Z,102169.09
2022-12-03T09:12:53.342Z,102163.44
2022-12-03T09:15:20.161Z,102167.53
2022-12-03T09:17:49.790Z,102163.91
2022-12-03T09:20:16.825Z,102159.38
2022-12-03T09:22:43.633Z,102162.75
2022-12-03T09:25:10.325Z,102157.63
2022-12-03T09:27:37.438Z,102159.38
2022-12-03T09:30:04.694Z,102156.63
2022-12-03T09:32:31.571Z,102152.03
2022-12-03T09:34:58.266Z,102149.09
2022-12-03T09:37:24.883Z,102147.59
2022-12-03T09:39:51.587Z,102140.88
2022-12-03T09:42:18.312Z,102138.97
2022-12-03T09:44:45.334Z,102139.00
2022-12-03T09:47:11.937Z,102135.78
2022-12-03T09:49:40.292Z,102141.44
2022-12-03T09:52:07.498Z,102139.69
2022-12-03T09:54:35.431Z,102136.75
2022-12-03T09:57:04.428Z,102137.16
2022-12-03T09:59:33.431Z,102124.13
2022-12-03T10:02:00.651Z,102128.31
2022-12-03T10:04:28.421Z,102132.13
2022-12-03T10:06:56.385Z,102122.50
2022-12-03T10:09:28.444Z,102121.56
2022-12-03T10:11:56.876Z,102121.19
2022-12-03T10:14:23.673Z,102118.78
2022-12-03T10:16:50.698Z,102118.13
2022-12-03T10:19:29.582Z,102123.22
2022-12-03T10:21:56.347Z,102123.25
2022-12-03T10:24:26.959Z,102112.75
2022-12-03T10:26:57.106Z,102111.97
2022-12-03T10:29:32.856Z,102110.88
2022-12-03T10:32:03.054Z,102100.72
2022-12-03T10:37:22.953Z,102098.91
2022-12-03T10:40:10.854Z,102106.81
2022-12-03T10:42:39.607Z,102103.53
2022-12-03T10:45:18.495Z,102101.34
2022-12-03T10:48:06.608Z,102103.56
2022-12-03T10:50:34.834Z,102104.63
2022-12-03T10:53:02.345Z,102106.66
2022-12-03T10:55:39.826Z,102106.97
2022-12-03T10:58:09.025Z,102104.50
2022-12-03T11:00:35.812Z,102106.25
2022-12-03T11:03:02.691Z,102089.22
2022-12-03T11:05:29.400Z,102103.19
2022-12-03T11:07:56.481Z,102100.94
2022-12-03T11:10:23.825Z,102096.34
2022-12-03T11:13:39.053Z,102080.69
2022-12-03T11:16:08.327Z,102090.97
2022-12-03T11:18:55.117Z,102088.53
2022-12-03T11:21:21.937Z,102084.91
2022-12-03T11:23:51.852Z,102086.72
2022-12-03T11:26:19.978Z,102077.50
2022-12-03T11:28:46.867Z,102070.53
2022-12-03T11:31:40.871Z,102069.91
2022-12-03T11:34:17.255Z,102071.72
2022-12-03T11:37:12.133Z,102066.25
2022-12-03T11:39:45.446Z,102065.63
2022-12-03T11:42:25.786Z,102062.03
2022-12-03T11:45:04.815Z,102055.69
2022-12-03T11:48:01.040Z,102064.66
2022-12-03T11:50:39.603Z,102057.34
2022-12-03T11:53:13.196Z,102054.31
2022-12-03T11:55:44.519Z,102050.69
2022-12-03T11:58:27.174Z,102048.97
2022-12-03T12:00:56.395Z,102049.19
2022-12-03T12:03:34.131Z,102042.47
2022-12-03T12:06:09.290Z,102044.91
2022-12-03T12:08:42.631Z,102047.66
2022-12-03T12:11:43.916Z,102046.69
2022-12-03T12:14:12.225Z,102047.03
2022-12-03T12:16:53.168Z,102050.41
2022-12-03T12:19:33.656Z,102051.06
2022-12-03T12:22:12.718Z,102049.16
2022-12-03T12:24:48.623Z,102045.66
2022-12-03T12:27:37.928Z,102042.81
2022-12-03T12:30:19.799Z,102047.97
2022-12-03T12:33:07.919Z,102045.59
2022-12-03T12:35:34.896Z,102044.13
2022-12-03T12:38:07.640Z,102035.63
2022-12-03T12:40:36.990Z,102025.94
2022-12-03T12:43:15.242Z,102032.16
2022-12-03T12:45:44.871Z,102018.88
2022-12-03T12:48:29.178Z,102022.06
2022-12-03T12:51:10.519Z,102021.09
2022-12-03T12:53:39.500Z,102019.56
2022-12-03T12:56:30.517Z,102020.50
2022-12-03T12:58:59.456Z,102017.09
2022-12-03T13:01:29.776Z,102012.72
2022-12-03T13:03:57.047Z,102008.97
2022-12-03T13:06:28.869Z,102009.41
2022-12-03T13:08:56.152Z,102000.31
2022-12-03T13:11:45.788Z,101990.72
2022-12-03T13:14:24.179Z,101992.28
2022-12-03T13:16:53.444Z,101984.47
2022-12-03T13:19:27.711Z,101982.06
2022-12-03T13:21:56.665Z,101990.00
2022-12-03T13:24:26.377Z,101989.34
2022-12-03T13:26:53.255Z,101978.59
2022-12-03T13:29:21.063Z,101989.34
2022-12-03T13:31:59.713Z,101979.47
2022-12-03T13:34:29.109Z,101978.56
2022-12-03T13:39:48.182Z,101976.91
2022-12-03T13:42:41.831Z,101978.50
2022-12-03T13:45:14.735Z,101984.72
2022-12-03T13:47:45.753Z,101985.56
2022-12-03T13:50:36.762Z,101982.84
2022-12-03T13:53:33.421Z,101980.75
2022-12-03T13:56:18.798Z,101992.81
2022-12-03T13:58:45.415Z,101983.19
2022-12-03T14:01:12.257Z,101983.28
2022-12-03T14:03:38.944Z,101983.47
2022-12-03T14:06:05.738Z,101983.66
2022-12-03T14:08:32.361Z,101979.09
2022-12-03T14:11:00.920Z,101991.41
2022-12-03T14:13:28.093Z,101978.03
2022-12-03T14:15:54.708Z,101976.34
2022-12-03T14:18:21.382Z,101981.91
2022-12-03T14:20:48.433Z,101981.81
2022-12-03T14:23:15.638Z,101977.53
2022-12-03T14:25:44.072Z,101983.56
2022-12-03T14:28:11.612Z,101979.19
2022-12-03T14:30:38.243Z,101980.13
2022-12-03T14:33:04.949Z,101980.31
2022-12-03T14:35:31.607Z,101977.41
2022-12-03T14:37:58.386Z,101979.28
2022-12-03T14:40:26.077Z,101971.28
2022-12-03T14:42:52.776Z,101977.88
2022-12-03T14:45:20.852Z,101976.91
2022-12-03T14:47:47.470Z,101978.78
2022-12-03T14:50:14.607Z,101982.84
2022-12-03T14:52:41.791Z,101982.19
2022-12-03T14:55:09.033Z,101981.31
2022-12-03T14:57:36.914Z,101980.31
2022-12-03T15:00:05.582Z,101984.72
2022-12-03T15:02:32.429Z,101986.25
2022-12-03T15:04:59.289Z,101995.97
2022-12-03T15:07:26.073Z,101982.16
2022-12-03T15:09:53.055Z,101982.84
2022-12-03T15:12:19.952Z,101982.75
2022-12-03T15:14:47.745Z,101981.72
2022-12-03T15:17:14.570Z,101977.06
2022-12-03T15:19:41.656Z,101979.69
2022-12-03T15:22:08.320Z,101979.16
2022-12-03T15:24:35.212Z,101982.84
2022-12-03T15:27:02.227Z,101981.91
2022-12-03T15:29:29.094Z,101984.63
2022-12-03T15:31:55.881Z,101987.13
2022-12-03T15:34:23.376Z,101986.53
2022-12-03T15:36:50.430Z,101996.66
2022-12-03T15:39:17.304Z,101993.25
2022-12-03T15:41:44.127Z,101989.19
2022-12-03T15:44:11.012Z,101986.75
2022-12-03T15:46:37.947Z,101991.19
2022-12-03T15:49:05.016Z,101990.44
2022-12-03T15:51:33.060Z,101986.16
2022-12-03T15:54:00.074Z,101987.75
2022-12-03T15:56:26.932Z,101991.81
2022-12-03T15:58:53.841Z,101987.66
2022-12-03T16:01:20.926Z,101984.47
2022-12-03T16:03:47.778Z,101986.25
2022-12-03T16:06:14.969Z,101977.75
2022-12-03T16:08:41.779Z,101975.28
2022-12-03T16:11:08.700Z,101979.75
2022-12-03T16:13:35.593Z,101977.91
2022-12-03T16:16:02.313Z,101982.59
2022-12-03T16:18:29.110Z,101982.69
2022-12-03T16:20:55.802Z,101980.59
2022-12-03T16:23:22.590Z,101978.97
2022-12-03T16:25:49.252Z,101982.38
2022-12-03T16:28:15.890Z,101976.97
2022-12-03T16:30:42.870Z,101968.19
2022-12-03T16:33:09.910Z,101963.13
2022-12-03T16:35:38.122Z,101976.81
2022-12-03T16:38:04.926Z,101974.50
2022-12-03T16:40:31.578Z,101977.00
2022-12-03T16:42:58.932Z,101976.84
2022-12-03T16:45:28.920Z,101972.31
2022-12-03T16:47:55.910Z,101979.53
2022-12-03T16:50:29.442Z,101980.72
2022-12-03T16:52:57.436Z,101983.22
2022-12-03T16:55:25.152Z,101978.69
2022-12-03T16:57:52.273Z,101987.59
2022-12-03T17:00:21.867Z,101976.34
2022-12-03T17:02:49.589Z,101974.50
2022-12-03T17:05:16.443Z,101972.88
2022-12-03T17:07:43.255Z,101966.84
2022-12-03T17:10:10.936Z,101967.50
2022-12-03T17:13:07.830Z,101973.41
2022-12-03T17:15:24.568Z,101969.28
2022-12-03T17:17:54.362Z,101974.44
2022-12-03T17:20:21.548Z,101969.94
2022-12-03T17:22:48.393Z,101970.81
2022-12-03T17:25:15.303Z,101976.84
2022-12-03T17:27:45.075Z,101969.00
2022-12-03T17:30:12.865Z,101963.75
2022-12-03T17:32:39.808Z,101963.06
2022-12-03T17:35:06.904Z,101963.84
2022-12-03T17:37:33.846Z,101958.63
2022-12-03T17:40:00.790Z,101957.84
2022-12-03T17:42:27.531Z,101957.91
2022-12-03T17:44:54.277Z,101961.66
2022-12-03T17:47:24.255Z,101955.47
2022-12-03T17:49:51.216Z,101951.84
2022-12-03T17:52:18.038Z,101958.25
2022-12-03T17:55:08.987Z,101960.38
2022-12-03T17:57:31.815Z,101964.28
2022-12-03T17:59:58.718Z,101959.03
2022-12-03T18:02:25.606Z,101951.38
2022-12-03T18:04:52.288Z,101951.50
2022-12-03T18:07:19.118Z,101954.56
2022-12-03T18:09:45.820Z,101958.06
2022-12-03T18:12:12.971Z,101954.88
2022-12-03T18:14:39.670Z,101949.72
2022-12-03T18:17:06.603Z,101954.19
2022-12-03T18:19:33.566Z,101962.72
2022-12-03T18:22:00.303Z,101951.31
2022-12-03T18:24:27.342Z,101956.66
2022-12-03T18:26:54.273Z,101950.53
2022-12-03T18:29:21.643Z,101960.59
2022-12-03T18:31:48.662Z,101952.41
2022-12-03T18:34:15.459Z,101951.78
2022-12-03T18:36:42.385Z,101949.56
2022-12-03T18:39:15.003Z,101951.94
2022-12-03T18:41:41.887Z,101946.56
2022-12-03T18:44:10.050Z,101953.72
2022-12-03T18:46:52.938Z,101954.09
2022-12-03T18:49:20.448Z,101950.91
2022-12-03T18:51:48.296Z,101952.94
2022-12-03T18:54:15.389Z,101942.72
2022-12-03T18:56:42.186Z,101952.25
2022-12-03T18:59:09.010Z,101948.59
2022-12-03T19:01:36.082Z,101956.75
2022-12-03T19:04:02.936Z,101950.34
2022-12-03T19:06:30.708Z,101954.25
2022-12-03T19:08:57.863Z,101958.19
2022-12-03T19:11:24.881Z,101962.75
2022-12-03T19:13:53.121Z,101951.56
2022-12-03T19:16:20.201Z,101953.16
2022-12-03T19:18:47.261Z,101948.59
2022-12-03T19:21:15.551Z,101953.13
2022-12-03T19:24:04.215Z,101951.28
2022-12-03T19:26:30.566Z,101955.44
2022-12-03T19:28:57.666Z,101961.72
2022-12-03T19:31:24.498Z,101958.41
2022-12-03T19:33:51.982Z,101967.22
2022-12-03T19:36:19.981Z,101951.28
2022-12-03T19:38:53.489Z,101965.16
2022-12-03T19:41:23.986Z,101960.03
2022-12-03T19:43:52.624Z,101957.34
2022-12-03T19:46:20.768Z,101953.16
2022-12-03T19:48:47.942Z,101958.63
2022-12-03T19:51:33.612Z,101957.41
2022-12-03T19:54:01.207Z,101955.09
2022-12-03T19:56:30.426Z,101959.22
2022-12-03T19:58:57.895Z,101958.38
2022-12-03T20:01:27.088Z,101958.13
2022-12-03T20:03:55.656Z,101958.00
2022-12-03T20:06:25.676Z,101954.53
2022-12-03T20:09:00.109Z,101955.31
2022-12-03T20:11:32.021Z,101959.88
2022-12-03T20:14:01.336Z,101955.97
2022-12-03T20:16:28.657Z,101962.09
2022-12-03T20:19:00.535Z,101958.25
2022-12-03T20:21:29.979Z,101953.00
2022-12-03T20:23:56.838Z,101955.53
2022-12-03T20:26:24.211Z,101957.41
2022-12-03T20:28:53.352Z,101949.72
2022-12-03T20:31:22.306Z,101953.28
2022-12-03T20:33:51.414Z,101952.25
2022-12-03T20:36:20.087Z,101954.06
2022-12-03T20:38:47.585Z,101954.38
2022-12-03T20:41:16.953Z,101960.25
2022-12-03T20:43:43.629Z,101962.31
2022-12-03T20:46:32.649Z,101964.38
2022-12-03T20:48:59.879Z,101965.13
2022-12-03T20:51:29.779Z,101969.69
2022-12-03T20:53:57.851Z,101960.38
2022-12-03T20:56:31.666Z,101965.72
2022-12-03T20:59:04.949Z,101957.03
2022-12-03T21:01:31.893Z,101957.13
2022-12-03T21:03:58.832Z,101963.19
2022-12-03T21:06:27.939Z,101949.22
2022-12-03T21:08:56.278Z,101955.28
2022-12-03T21:11:25.066Z,101957.63
2022-12-03T21:13:53.047Z,101958.63
2022-12-03T21:16:34.526Z,101950.75
2022-12-03T21:19:09.715Z,101950.75
2022-12-03T21:21:36.988Z,101953.16
2022-12-03T21:24:03.864Z,101952.16
2022-12-03T21:26:30.758Z,101943.88
2022-12-03T21:28:57.407Z,101947.56
2022-12-03T21:31:26.036Z,101942.84
2022-12-03T21:33:53.912Z,101945.91
2022-12-03T21:36:20.668Z,101934.59
2022-12-03T21:38:48.360Z,101936.44
2022-12-03T21:41:15.620Z,101938.22
2022-12-03T21:43:43.205Z,101934.84
2022-12-03T21:47:09.146Z,101945.59
2022-12-03T21:49:00.181Z,101942.66
2022-12-03T21:51:27.028Z,101934.63
2022-12-03T21:53:53.745Z,101936.47
2022-12-03T21:56:20.517Z,101938.38
2022-12-03T21:58:47.751Z,101935.06
2022-12-03T22:01:17.975Z,101923.63
2022-12-03T22:03:45.585Z,101934.84
2022-12-03T22:06:12.448Z,101937.44
2022-12-03T22:08:39.340Z,101934.72
2022-12-03T22:11:17.719Z,101936.47
2022-12-03T22:13:44.970Z,101939.19
2022-12-03T22:16:21.683Z,101930.13
2022-12-03T22:18:49.001Z,101931.00
2022-12-03T22:21:17.792Z,101934.91
2022-12-03T22:23:45.409Z,101919.44
2022-12-03T22:26:15.025Z,101931.09
2022-12-03T22:28:47.180Z,101939.22
2022-12-03T22:31:14.869Z,101927.72
2022-12-03T22:33:43.609Z,101922.13
2022-12-03T22:36:19.673Z,101926.69
2022-12-03T22:38:48.091Z,101922.38
2022-12-03T22:41:14.980Z,101931.97
2022-12-03T22:43:42.333Z,101925.91
2022-12-03T22:46:12.970Z,101915.44
2022-12-03T22:48:41.590Z,101918.06
2022-12-03T22:51:15.348Z,101914.69
2022-12-03T22:53:42.285Z,101917.22
2022-12-03T22:56:09.188Z,101918.94
2022-12-03T22:58:37.800Z,101912.97
2022-12-03T23:01:05.219Z,101917.56
2022-12-03T23:03:32.263Z,101917.38
2022-12-03T23:05:58.924Z,101921.59
2022-12-03T23:08:25.658Z,101908.47
2022-12-03T23:10:53.312Z,101912.00
2022-12-03T23:13:20.882Z,101914.81
2022-12-03T23:15:49.864Z,101908.81
2022-12-03T23:18:17.200Z,101898.16
2022-12-03T23:20:49.463Z,101902.25
2022-12-03T23:23:16.791Z,101902.34
2022-12-03T23:25:43.890Z,101898.78
2022-12-03T23:28:11.068Z,101898.06
2022-12-03T23:30:38.719Z,101893.28
2022-12-03T23:33:05.919Z,101894.31
2022-12-03T23:35:33.065Z,101897.00
2022-12-03T23:37:59.782Z,101901.53
2022-12-03T23:40:26.579Z,101889.28
2022-12-03T23:42:53.264Z,101888.31
2022-12-03T23:45:19.993Z,101889.31
2022-12-03T23:47:46.690Z,101882.97
2022-12-03T23:50:13.507Z,101892.06
2022-12-03T23:52:40.284Z,101880.84
2022-12-03T23:55:07.230Z,101898.44
2022-12-03T23:57:34.328Z,101884.56
